Time;durP1;ratioP1;P1;durP2;ratioP2;P2;SDS_P1;SDS_P2;PMS_P1;PMS_P2;Temp;Humidity;BMP_temperature;BMP_pressure;BME280_temperature;BME280_humidity;BME280_pressure;Samples;Min_cycle;Max_cycle;Signal;HPM_P1;HPM_P2
2023/09/27 00:00:42;;;;;;;37.42;30.60;;;;;;;;;;5007269;28;20088;-71
2023/09/27 00:03:08;;;;;;;41.67;31.10;;;;;;;;;;5008448;28;20110;-70
2023/09/27 00:05:34;;;;;;;35.03;28.73;;;;;;;;;;5008798;28;20052;-70
2023/09/27 00:08:00;;;;;;;42.28;31.23;;;;;;;;;;4991685;28;20045;-70
2023/09/27 00:10:27;;;;;;;37.63;27.58;;;;;;;;;;5006144;28;20019;-70
2023/09/27 00:12:53;;;;;;;33.65;27.40;;;;;;;;;;5007469;28;20026;-72
2023/09/27 00:15:19;;;;;;;37.60;28.63;;;;;;;;;;5008323;28;20026;-69
2023/09/27 00:17:46;;;;;;;33.53;27.83;;;;;;;;;;5005530;28;20033;-71
2023/09/27 00:20:15;;;;;;;37.00;29.38;;;;;;;;;;5008141;28;20097;-70
2023/09/27 00:22:42;;;;;;;37.72;30.90;;;;;;;;;;5006919;28;20130;-70
2023/09/27 00:25:11;;;;;;;36.92;29.17;;;;;;;;;;5003782;28;20061;-70
2023/09/27 00:27:37;;;;;;;35.50;27.88;;;;;;;;;;5004041;28;20373;-69
2023/09/27 00:30:05;;;;;;;40.80;30.75;;;;;;;;;;5002868;28;20025;-70
2023/09/27 00:32:32;;;;;;;46.30;31.98;;;;;;;;;;5008581;28;20209;-70
2023/09/27 00:34:58;;;;;;;41.72;32.00;;;;;;;;;;4988116;28;20472;-69
2023/09/27 00:37:25;;;;;;;45.92;33.97;;;;;;;;;;5006587;28;20034;-70
2023/09/27 00:39:51;;;;;;;46.28;34.88;;;;;;;;;;5003738;28;20049;-70
2023/09/27 00:42:17;;;;;;;43.35;31.60;;;;;;;;;;5008218;28;20048;-70
2023/09/27 00:44:44;;;;;;;42.67;32.15;;;;;;;;;;5005617;28;20712;-70
2023/09/27 00:47:10;;;;;;;48.97;35.90;;;;;;;;;;5003617;28;20053;-70
2023/09/27 00:49:36;;;;;;;45.83;35.30;;;;;;;;;;5000907;28;20030;-70
2023/09/27 00:52:04;;;;;;;47.55;36.15;;;;;;;;;;5004483;28;20019;-69
2023/09/27 00:54:31;;;;;;;49.80;36.60;;;;;;;;;;5002683;28;20034;-69
2023/09/27 00:56:58;;;;;;;48.70;36.30;;;;;;;;;;5002977;28;20049;-69
2023/09/27 00:59:25;;;;;;;49.58;36.72;;;;;;;;;;4973844;28;20403;-69
2023/09/27 01:01:52;;;;;;;47.63;37.95;;;;;;;;;;5007704;28;20034;-69
2023/09/27 01:04:18;;;;;;;45.83;36.45;;;;;;;;;;5001885;28;20128;-69
2023/09/27 01:06:44;;;;;;;45.80;33.35;;;;;;;;;;5005402;28;20050;-70
2023/09/27 01:09:14;;;;;;;44.95;35.38;;;;;;;;;;5002594;28;20022;-70
2023/09/27 01:11:40;;;;;;;47.35;35.33;;;;;;;;;;5007586;28;20074;-70
2023/09/27 01:14:06;;;;;;;45.05;34.67;;;;;;;;;;4988205;28;20121;-70
2023/09/27 01:16:33;;;;;;;48.75;37.20;;;;;;;;;;5004763;28;20046;-71
2023/09/27 01:19:02;;;;;;;51.28;37.20;;;;;;;;;;5001141;28;20030;-70
2023/09/27 01:21:28;;;;;;;49.72;36.22;;;;;;;;;;4988267;28;20033;-70
2023/09/27 01:23:55;;;;;;;49.85;37.95;;;;;;;;;;5002617;28;20117;-70
2023/09/27 01:26:21;;;;;;;48.38;36.72;;;;;;;;;;5002898;28;20026;-70
2023/09/27 01:28:47;;;;;;;49.60;36.97;;;;;;;;;;5003069;28;20025;-70
2023/09/27 01:31:14;;;;;;;48.42;37.53;;;;;;;;;;5006284;28;20124;-70
2023/09/27 01:33:40;;;;;;;55.22;38.38;;;;;;;;;;5004898;28;20033;-70
2023/09/27 01:36:07;;;;;;;63.33;42.75;;;;;;;;;;5002337;28;21316;-71
2023/09/27 01:38:33;;;;;;;60.30;42.78;;;;;;;;;;5003901;28;20099;-71
2023/09/27 01:40:59;;;;;;;56.35;40.97;;;;;;;;;;5004840;28;20040;-70
2023/09/27 01:43:26;;;;;;;59.25;43.33;;;;;;;;;;5005707;28;20029;-70
2023/09/27 01:45:52;;;;;;;62.72;43.60;;;;;;;;;;5005736;28;20029;-70
2023/09/27 01:48:20;;;;;;;63.83;46.10;;;;;;;;;;5006885;28;20022;-70
2023/09/27 01:50:46;;;;;;;62.95;46.55;;;;;;;;;;5003276;28;20030;-70
2023/09/27 01:53:12;;;;;;;67.28;46.13;;;;;;;;;;4987700;28;20040;-71
2023/09/27 01:55:39;;;;;;;72.25;49.28;;;;;;;;;;4999056;28;20026;-70
2023/09/27 01:58:05;;;;;;;81.55;55.25;;;;;;;;;;4987693;28;20021;-70
2023/09/27 02:00:31;;;;;;;82.80;56.42;;;;;;;;;;5002213;28;20029;-70
2023/09/27 02:02:58;;;;;;;84.15;56.50;;;;;;;;;;5005404;28;20541;-70
2023/09/27 02:05:28;;;;;;;86.60;56.03;;;;;;;;;;5004899;28;20523;-70
2023/09/27 02:07:55;;;;;;;86.97;59.58;;;;;;;;;;5005113;28;20048;-70
2023/09/27 02:10:21;;;;;;;90.45;61.33;;;;;;;;;;4984158;28;20022;-70
2023/09/27 02:12:47;;;;;;;94.88;63.28;;;;;;;;;;5000879;28;20061;-70
2023/09/27 02:15:14;;;;;;;84.25;57.42;;;;;;;;;;5003204;28;20036;-70
2023/09/27 02:17:41;;;;;;;84.85;57.25;;;;;;;;;;4986587;28;20060;-70
2023/09/27 02:20:09;;;;;;;85.15;55.97;;;;;;;;;;5002234;28;20113;-70
2023/09/27 02:22:35;;;;;;;80.20;54.60;;;;;;;;;;5006907;28;20475;-70
2023/09/27 02:25:05;;;;;;;78.68;52.85;;;;;;;;;;5003748;28;20407;-70
2023/09/27 02:27:31;;;;;;;75.72;52.20;;;;;;;;;;4983226;28;20042;-69
2023/09/27 02:29:57;;;;;;;85.47;56.17;;;;;;;;;;5002647;28;20022;-69
2023/09/27 02:32:24;;;;;;;80.60;54.30;;;;;;;;;;5001558;28;20026;-70
2023/09/27 02:34:51;;;;;;;85.65;54.13;;;;;;;;;;4986324;28;20121;-69
2023/09/27 02:37:17;;;;;;;76.75;54.20;;;;;;;;;;5003300;28;20802;-69
2023/09/27 02:39:44;;;;;;;85.03;55.60;;;;;;;;;;5004092;28;20045;-72
2023/09/27 02:42:10;;;;;;;83.57;55.00;;;;;;;;;;4998847;28;20030;-71
2023/09/27 02:44:37;;;;;;;67.93;49.63;;;;;;;;;;5003349;28;20034;-71
2023/09/27 02:47:04;;;;;;;79.85;51.92;;;;;;;;;;5004814;28;20030;-71
2023/09/27 02:49:30;;;;;;;87.10;54.72;;;;;;;;;;5003176;28;20507;-71
2023/09/27 02:51:56;;;;;;;70.55;48.42;;;;;;;;;;5006684;28;20125;-71
2023/09/27 02:54:22;;;;;;;65.20;47.45;;;;;;;;;;5002758;28;20033;-70
2023/09/27 02:56:48;;;;;;;71.50;49.25;;;;;;;;;;5004799;28;20033;-71
2023/09/27 02:59:15;;;;;;;73.90;50.85;;;;;;;;;;5004398;28;20030;-71
2023/09/27 03:01:41;;;;;;;77.20;50.20;;;;;;;;;;5004874;28;20494;-71
2023/09/27 03:04:11;;;;;;;81.65;51.42;;;;;;;;;;5002863;28;20048;-71
2023/09/27 03:06:38;;;;;;;69.18;47.22;;;;;;;;;;5001226;28;20141;-71
2023/09/27 03:09:04;;;;;;;67.07;46.47;;;;;;;;;;4984708;28;20475;-70
2023/09/27 03:11:33;;;;;;;74.97;49.45;;;;;;;;;;4988297;28;20125;-71
2023/09/27 03:14:00;;;;;;;77.55;52.00;;;;;;;;;;5005653;28;20479;-71
2023/09/27 03:16:27;;;;;;;83.38;52.63;;;;;;;;;;5001786;28;20030;-71
2023/09/27 03:18:54;;;;;;;99.88;62.42;;;;;;;;;;5000939;28;20025;-71
2023/09/27 03:21:21;;;;;;;109.78;69.63;;;;;;;;;;5002758;28;20026;-71
2023/09/27 03:23:48;;;;;;;145.95;82.22;;;;;;;;;;5003121;28;20049;-71
2023/09/27 03:26:14;;;;;;;132.65;78.88;;;;;;;;;;4987063;28;20041;-70
2023/09/27 03:28:41;;;;;;;114.32;71.15;;;;;;;;;;4997599;28;20045;-71
2023/09/27 03:31:07;;;;;;;112.43;70.57;;;;;;;;;;5004063;28;20086;-70
2023/09/27 03:33:33;;;;;;;108.85;66.40;;;;;;;;;;5005537;28;20049;-70
2023/09/27 03:36:03;;;;;;;126.13;74.88;;;;;;;;;;5003834;28;20030;-71
2023/09/27 03:38:29;;;;;;;123.75;73.47;;;;;;;;;;4984462;28;20026;-72
2023/09/27 03:40:55;;;;;;;123.40;72.28;;;;;;;;;;4998429;28;20083;-71
2023/09/27 03:43:22;;;;;;;122.68;74.32;;;;;;;;;;5000361;28;20036;-70
2023/09/27 03:45:49;;;;;;;119.13;71.63;;;;;;;;;;4994878;28;20081;-71
2023/09/27 03:48:15;;;;;;;111.47;68.90;;;;;;;;;;4986545;28;20034;-71
2023/09/27 03:50:42;;;;;;;113.22;69.57;;;;;;;;;;5002888;28;20107;-70
2023/09/27 03:53:08;;;;;;;121.25;70.82;;;;;;;;;;5003953;28;20038;-71
2023/09/27 03:55:35;;;;;;;119.65;70.43;;;;;;;;;;4986033;28;20068;-70
2023/09/27 03:58:03;;;;;;;110.10;69.53;;;;;;;;;;5003670;28;20022;-71
2023/09/27 04:00:29;;;;;;;116.22;70.65;;;;;;;;;;4984682;28;20029;-71
2023/09/27 04:02:55;;;;;;;102.60;67.65;;;;;;;;;;4996783;28;20136;-71
2023/09/27 04:05:26;;;;;;;111.05;65.40;;;;;;;;;;5004001;28;20117;-71
2023/09/27 04:07:52;;;;;;;108.43;64.93;;;;;;;;;;4991663;28;20051;-71
2023/09/27 04:10:19;;;;;;;101.20;62.40;;;;;;;;;;5003160;28;20106;-71
2023/09/27 04:12:47;;;;;;;103.45;62.65;;;;;;;;;;5004625;28;20030;-71
2023/09/27 04:15:13;;;;;;;112.10;66.65;;;;;;;;;;5003976;28;20087;-71
2023/09/27 04:17:39;;;;;;;99.55;60.78;;;;;;;;;;5003694;28;20033;-71
2023/09/27 04:20:17;;;;;;;97.32;61.92;;;;;;;;;;5006625;28;20034;-70
2023/09/27 04:22:44;;;;;;;93.90;60.42;;;;;;;;;;5006153;28;20403;-71
2023/09/27 04:25:12;;;;;;;90.35;57.63;;;;;;;;;;5008743;28;20861;-71
2023/09/27 04:27:40;;;;;;;98.60;55.72;;;;;;;;;;5004216;28;20133;-70
2023/09/27 04:30:08;;;;;;;91.07;57.35;;;;;;;;;;5004700;28;20037;-70
2023/09/27 04:32:36;;;;;;;95.70;61.17;;;;;;;;;;5008974;28;20038;-70
2023/09/27 04:35:02;;;;;;;95.20;59.97;;;;;;;;;;5005362;28;20025;-70
2023/09/27 04:37:28;;;;;;;99.68;59.88;;;;;;;;;;5006298;28;20034;-70
2023/09/27 04:39:54;;;;;;;90.93;57.15;;;;;;;;;;5008090;28;20025;-71
2023/09/27 04:42:20;;;;;;;90.30;55.97;;;;;;;;;;5006796;28;20033;-70
2023/09/27 04:44:47;;;;;;;102.57;61.78;;;;;;;;;;5008918;28;21543;-71
2023/09/27 04:47:13;;;;;;;127.30;69.40;;;;;;;;;;5004479;28;20042;-70
2023/09/27 04:49:39;;;;;;;114.00;67.13;;;;;;;;;;5007122;28;20030;-70
2023/09/27 04:52:05;;;;;;;121.40;72.60;;;;;;;;;;5007241;28;20044;-71
2023/09/27 04:54:31;;;;;;;130.88;75.80;;;;;;;;;;5004069;28;20033;-71
2023/09/27 04:56:57;;;;;;;133.80;74.45;;;;;;;;;;5005845;28;20433;-70
2023/09/27 04:59:24;;;;;;;119.93;72.72;;;;;;;;;;4988870;28;20041;-70
2023/09/27 05:01:51;;;;;;;122.57;69.32;;;;;;;;;;5012931;28;20044;-70
2023/09/27 05:04:17;;;;;;;88.80;59.58;;;;;;;;;;4993140;28;20148;-71
2023/09/27 05:06:44;;;;;;;95.93;56.35;;;;;;;;;;5009184;28;20030;-70
2023/09/27 05:09:11;;;;;;;84.25;55.00;;;;;;;;;;5004920;28;20038;-71
2023/09/27 05:11:37;;;;;;;88.88;56.10;;;;;;;;;;5010324;28;20037;-71
2023/09/27 05:14:05;;;;;;;94.43;57.28;;;;;;;;;;4993085;28;20157;-71
2023/09/27 05:16:36;;;;;;;81.55;54.97;;;;;;;;;;5008627;28;20066;-71
2023/09/27 05:19:02;;;;;;;80.22;50.28;;;;;;;;;;5003441;28;20403;-70
2023/09/27 05:21:28;;;;;;;83.82;52.20;;;;;;;;;;5003605;28;20465;-70
2023/09/27 05:23:54;;;;;;;94.07;56.08;;;;;;;;;;5013940;28;20245;-71
2023/09/27 05:26:20;;;;;;;101.90;57.60;;;;;;;;;;5010242;28;20038;-71
2023/09/27 05:28:47;;;;;;;86.40;54.28;;;;;;;;;;5006627;28;20103;-71
2023/09/27 05:31:13;;;;;;;90.82;55.47;;;;;;;;;;5001950;28;20018;-71
2023/09/27 05:33:39;;;;;;;84.10;52.92;;;;;;;;;;5007147;28;20026;-72
2023/09/27 05:36:05;;;;;;;83.57;53.58;;;;;;;;;;5003403;28;20407;-71
2023/09/27 05:38:31;;;;;;;90.70;54.85;;;;;;;;;;5000266;28;20056;-71
2023/09/27 05:40:57;;;;;;;101.03;58.65;;;;;;;;;;5002346;28;20072;-71
2023/09/27 05:43:23;;;;;;;125.00;71.57;;;;;;;;;;4988708;28;20102;-70
2023/09/27 05:45:50;;;;;;;148.65;79.00;;;;;;;;;;5003966;28;20693;-70
2023/09/27 05:48:16;;;;;;;161.18;88.78;;;;;;;;;;5005231;28;20056;-70
2023/09/27 05:50:44;;;;;;;167.48;91.22;;;;;;;;;;4987613;28;20523;-70
2023/09/27 05:53:12;;;;;;;165.10;93.22;;;;;;;;;;5002869;28;20033;-69
2023/09/27 05:55:39;;;;;;;156.95;90.03;;;;;;;;;;5004798;28;20392;-70
2023/09/27 05:58:05;;;;;;;163.35;93.70;;;;;;;;;;5004815;28;20028;-69
2023/09/27 06:00:37;;;;;;;148.05;88.72;;;;;;;;;;5005610;28;20052;-69
2023/09/27 06:03:08;;;;;;;157.65;87.85;;;;;;;;;;5019243;28;20018;-70
2023/09/27 06:05:34;;;;;;;142.27;86.30;;;;;;;;;;5008359;28;20022;-71
2023/09/27 06:08:03;;;;;;;145.98;88.05;;;;;;;;;;5000367;28;20050;-71
2023/09/27 06:10:29;;;;;;;134.02;84.50;;;;;;;;;;5008639;28;20030;-70
2023/09/27 06:12:55;;;;;;;135.10;85.80;;;;;;;;;;4989280;28;20243;-70
2023/09/27 06:15:22;;;;;;;146.32;87.22;;;;;;;;;;5004294;28;20064;-70
2023/09/27 06:17:48;;;;;;;134.77;86.15;;;;;;;;;;5010582;28;20069;-70
2023/09/27 06:20:22;;;;;;;131.38;82.32;;;;;;;;;;5003159;28;20034;-70
2023/09/27 06:22:54;;;;;;;123.43;78.40;;;;;;;;;;5003218;28;20041;-70
2023/09/27 06:25:23;;;;;;;116.13;75.88;;;;;;;;;;5004015;28;20045;-71
2023/09/27 06:27:51;;;;;;;116.63;76.25;;;;;;;;;;5001680;28;20072;-70
2023/09/27 06:30:17;;;;;;;111.03;74.30;;;;;;;;;;5010047;28;20026;-71
2023/09/27 06:32:43;;;;;;;115.82;75.82;;;;;;;;;;5006438;28;20038;-71
2023/09/27 06:35:12;;;;;;;117.13;75.63;;;;;;;;;;5006294;28;20025;-71
2023/09/27 06:37:40;;;;;;;122.55;75.82;;;;;;;;;;5004485;28;20034;-70
2023/09/27 06:40:16;;;;;;;111.97;72.80;;;;;;;;;;5000627;28;20506;-70
2023/09/27 06:42:43;;;;;;;108.55;74.40;;;;;;;;;;4996246;28;20034;-70
2023/09/27 06:45:10;;;;;;;108.05;72.47;;;;;;;;;;5002318;28;20394;-70
2023/09/27 06:47:38;;;;;;;100.28;70.50;;;;;;;;;;5007898;28;21299;-70
2023/09/27 06:50:04;;;;;;;91.80;67.90;;;;;;;;;;5011011;28;20034;-70
2023/09/27 06:52:31;;;;;;;99.03;67.40;;;;;;;;;;5010046;28;20581;-70
2023/09/27 06:55:00;;;;;;;93.95;65.68;;;;;;;;;;5007515;28;20111;-70
2023/09/27 06:57:26;;;;;;;93.78;65.60;;;;;;;;;;5010322;28;20119;-70
2023/09/27 06:59:52;;;;;;;88.80;62.83;;;;;;;;;;5007827;28;20066;-70
2023/09/27 07:02:18;;;;;;;85.57;62.53;;;;;;;;;;5010035;28;20553;-70
2023/09/27 07:04:46;;;;;;;89.60;64.13;;;;;;;;;;4999350;28;20061;-69
2023/09/27 07:07:12;;;;;;;81.20;60.55;;;;;;;;;;5007111;28;20049;-70
2023/09/27 07:09:40;;;;;;;84.15;59.17;;;;;;;;;;5009972;28;20038;-70
2023/09/27 07:12:08;;;;;;;77.18;57.45;;;;;;;;;;5009319;28;20103;-70
2023/09/27 07:14:36;;;;;;;79.63;57.60;;;;;;;;;;5010001;28;20204;-70
2023/09/27 07:17:03;;;;;;;75.85;56.17;;;;;;;;;;5007827;28;20262;-70
2023/09/27 07:19:31;;;;;;;72.85;55.40;;;;;;;;;;4992783;28;20085;-71
2023/09/27 07:21:57;;;;;;;65.43;52.22;;;;;;;;;;5009964;28;20033;-70
2023/09/27 07:24:23;;;;;;;64.18;49.38;;;;;;;;;;5008859;28;20113;-70
2023/09/27 07:26:52;;;;;;;61.03;47.65;;;;;;;;;;5009785;28;20454;-70
2023/09/27 07:29:18;;;;;;;52.80;45.97;;;;;;;;;;5007708;28;20054;-70
2023/09/27 07:31:45;;;;;;;47.60;41.85;;;;;;;;;;5009339;28;20034;-69
2023/09/27 07:34:11;;;;;;;53.47;42.17;;;;;;;;;;5007943;28;20095;-70
2023/09/27 07:36:37;;;;;;;49.30;39.72;;;;;;;;;;5008595;28;20033;-69
2023/09/27 07:39:09;;;;;;;46.50;38.75;;;;;;;;;;5008580;28;20044;-70
2023/09/27 07:41:35;;;;;;;50.83;39.28;;;;;;;;;;5011391;28;20507;-70
2023/09/27 07:44:04;;;;;;;46.15;38.15;;;;;;;;;;5010132;28;20032;-71
2023/09/27 07:46:30;;;;;;;49.17;38.10;;;;;;;;;;5009028;28;20080;-68
2023/09/27 07:48:56;;;;;;;48.85;37.83;;;;;;;;;;5009825;28;20022;-68
2023/09/27 07:51:23;;;;;;;51.75;36.72;;;;;;;;;;5005156;28;20383;-68
2023/09/27 07:53:49;;;;;;;45.47;36.38;;;;;;;;;;5008229;28;20030;-68
2023/09/27 07:56:22;;;;;;;41.10;34.78;;;;;;;;;;5012334;28;20034;-69
2023/09/27 07:58:51;;;;;;;38.78;30.02;;;;;;;;;;5013392;28;20042;-68
2023/09/27 08:01:20;;;;;;;42.17;29.02;;;;;;;;;;5011175;28;20045;-68
2023/09/27 08:03:51;;;;;;;38.80;25.27;;;;;;;;;;5011627;28;20065;-69
2023/09/27 08:06:18;;;;;;;33.22;24.77;;;;;;;;;;5011531;28;20030;-69
2023/09/27 08:08:44;;;;;;;29.45;22.55;;;;;;;;;;5012613;28;20045;-69
2023/09/27 08:11:11;;;;;;;30.25;22.42;;;;;;;;;;5010860;28;20030;-69
2023/09/27 08:13:38;;;;;;;29.35;22.38;;;;;;;;;;5013521;28;20038;-69
2023/09/27 08:16:06;;;;;;;35.03;24.70;;;;;;;;;;5014043;28;20034;-68
2023/09/27 08:18:33;;;;;;;27.27;22.92;;;;;;;;;;5013892;28;20122;-68
2023/09/27 08:21:00;;;;;;;29.02;23.05;;;;;;;;;;5012208;28;20050;-69
2023/09/27 08:23:26;;;;;;;31.88;22.48;;;;;;;;;;5031449;28;20033;-69
2023/09/27 08:25:52;;;;;;;31.23;21.98;;;;;;;;;;5017700;28;20025;-69
2023/09/27 08:28:21;;;;;;;30.13;22.58;;;;;;;;;;5014431;28;20030;-68
2023/09/27 08:30:47;;;;;;;31.35;21.83;;;;;;;;;;5012871;28;20022;-69
2023/09/27 08:33:13;;;;;;;31.10;20.77;;;;;;;;;;5012230;28;20030;-69
2023/09/27 08:35:40;;;;;;;28.23;21.98;;;;;;;;;;5014114;28;20103;-69
2023/09/27 08:38:06;;;;;;;32.95;23.63;;;;;;;;;;5003858;28;20104;-69
2023/09/27 08:40:32;;;;;;;33.90;23.95;;;;;;;;;;5010966;28;20030;-69
2023/09/27 08:43:00;;;;;;;30.38;23.40;;;;;;;;;;5012862;28;20483;-70
2023/09/27 08:45:27;;;;;;;32.75;22.50;;;;;;;;;;5015922;28;20037;-70
2023/09/27 08:47:56;;;;;;;29.60;23.27;;;;;;;;;;5010240;28;20049;-70
2023/09/27 08:50:23;;;;;;;34.33;25.42;;;;;;;;;;5011512;28;20034;-70
2023/09/27 08:52:50;;;;;;;34.28;24.40;;;;;;;;;;5012749;28;20021;-70
2023/09/27 08:55:17;;;;;;;32.58;23.58;;;;;;;;;;5010041;28;20033;-70
2023/09/27 08:57:45;;;;;;;32.42;23.30;;;;;;;;;;5012571;28;20045;-70
2023/09/27 09:00:13;;;;;;;28.48;22.70;;;;;;;;;;5009707;28;20423;-70
2023/09/27 09:02:40;;;;;;;32.03;23.38;;;;;;;;;;4991603;28;20042;-71
2023/09/27 09:05:07;;;;;;;32.20;23.20;;;;;;;;;;5003143;28;20073;-70
2023/09/27 09:07:33;;;;;;;32.28;24.65;;;;;;;;;;4989873;28;20034;-70
2023/09/27 09:10:00;;;;;;;34.15;23.80;;;;;;;;;;5002810;28;20049;-68
2023/09/27 09:12:26;;;;;;;33.00;24.27;;;;;;;;;;5011374;28;20088;-69
2023/09/27 09:14:54;;;;;;;30.92;23.70;;;;;;;;;;5012863;28;20068;-69
2023/09/27 09:17:25;;;;;;;32.03;23.85;;;;;;;;;;5010850;28;20044;-68
2023/09/27 09:20:15;;;;;;;33.17;22.88;;;;;;;;;;5012164;28;20045;-69
2023/09/27 09:22:45;;;;;;;28.95;24.60;;;;;;;;;;5009028;28;20037;-68
2023/09/27 09:25:11;;;;;;;31.08;24.20;;;;;;;;;;5010114;28;20029;-68
2023/09/27 09:27:37;;;;;;;31.27;24.45;;;;;;;;;;5008972;28;20122;-68
2023/09/27 09:30:06;;;;;;;34.40;24.40;;;;;;;;;;4992368;28;20088;-68
2023/09/27 09:32:33;;;;;;;33.50;23.48;;;;;;;;;;5011290;28;20038;-69
2023/09/27 09:35:00;;;;;;;37.78;23.90;;;;;;;;;;5008031;28;20042;-69
2023/09/27 09:37:28;;;;;;;30.15;21.83;;;;;;;;;;5010223;28;20037;-69
2023/09/27 09:40:12;;;;;;;27.60;23.88;;;;;;;;;;5011463;28;20034;-69
2023/09/27 09:42:39;;;;;;;31.92;22.80;;;;;;;;;;5011260;28;20041;-68
2023/09/27 09:45:06;;;;;;;32.90;22.50;;;;;;;;;;5007713;28;20037;-68
2023/09/27 09:47:36;;;;;;;30.50;21.40;;;;;;;;;;5011097;28;20034;-69
2023/09/27 09:50:06;;;;;;;29.70;22.48;;;;;;;;;;5005240;28;20022;-69
2023/09/27 09:52:35;;;;;;;30.33;21.13;;;;;;;;;;4991823;28;20096;-69
2023/09/27 09:55:03;;;;;;;28.42;21.13;;;;;;;;;;5001120;28;20474;-69
2023/09/27 09:57:35;;;;;;;27.70;20.95;;;;;;;;;;5010925;28;20037;-69
2023/09/27 10:00:13;;;;;;;35.55;21.10;;;;;;;;;;5010650;28;20129;-69
2023/09/27 10:02:50;;;;;;;28.70;20.92;;;;;;;;;;5009905;28;20527;-69
2023/09/27 10:05:21;;;;;;;28.52;20.05;;;;;;;;;;5008631;28;20032;-69
2023/09/27 10:07:48;;;;;;;27.58;20.55;;;;;;;;;;5010342;28;20034;-70
2023/09/27 10:10:17;;;;;;;26.00;19.42;;;;;;;;;;5010105;28;20121;-70
2023/09/27 10:12:47;;;;;;;26.85;19.02;;;;;;;;;;5008072;28;20123;-70
2023/09/27 10:15:14;;;;;;;30.45;19.88;;;;;;;;;;5009998;28;20113;-69
2023/09/27 10:17:40;;;;;;;25.80;18.45;;;;;;;;;;4987554;28;20506;-70
2023/09/27 10:20:12;;;;;;;25.70;18.30;;;;;;;;;;5009957;28;20121;-70
2023/09/27 10:22:42;;;;;;;25.50;17.30;;;;;;;;;;5005975;28;20063;-70
2023/09/27 10:25:24;;;;;;;23.55;16.67;;;;;;;;;;5008011;28;20056;-70
2023/09/27 10:28:02;;;;;;;24.45;16.70;;;;;;;;;;5027363;28;20038;-70
2023/09/27 10:30:48;;;;;;;24.60;16.45;;;;;;;;;;5011142;28;20092;-70
2023/09/27 10:33:17;;;;;;;23.40;14.85;;;;;;;;;;5007123;28;20456;-69
2023/09/27 10:35:44;;;;;;;23.58;14.60;;;;;;;;;;5009386;28;20072;-70
2023/09/27 10:38:10;;;;;;;21.92;14.82;;;;;;;;;;5009971;28;20057;-70
2023/09/27 10:40:44;;;;;;;28.60;15.93;;;;;;;;;;5009269;28;20045;-70
2023/09/27 10:43:10;;;;;;;19.90;14.57;;;;;;;;;;5008521;28;20034;-70
2023/09/27 10:45:36;;;;;;;23.20;15.27;;;;;;;;;;5009568;28;20045;-70
2023/09/27 10:48:18;;;;;;;21.95;14.98;;;;;;;;;;5010088;28;20034;-70
2023/09/27 10:50:52;;;;;;;20.40;13.98;;;;;;;;;;5009177;28;20110;-70
2023/09/27 10:53:18;;;;;;;20.35;13.40;;;;;;;;;;5007826;28;20088;-70
2023/09/27 10:55:45;;;;;;;22.40;13.32;;;;;;;;;;5008686;28;20130;-69
2023/09/27 10:58:16;;;;;;;23.75;12.70;;;;;;;;;;5011001;28;20052;-69
2023/09/27 11:00:55;;;;;;;18.25;12.10;;;;;;;;;;4992629;28;20030;-69
2023/09/27 11:03:21;;;;;;;17.02;11.00;;;;;;;;;;4990997;28;20176;-70
2023/09/27 11:05:48;;;;;;;15.00;9.95;;;;;;;;;;5007153;28;20038;-69
2023/09/27 11:08:24;;;;;;;21.58;9.60;;;;;;;;;;5009999;28;20133;-69
2023/09/27 11:10:52;;;;;;;19.00;9.85;;;;;;;;;;5010385;28;20030;-70
2023/09/27 11:13:19;;;;;;;16.77;9.98;;;;;;;;;;4999352;28;20117;-69
2023/09/27 11:15:46;;;;;;;15.32;9.98;;;;;;;;;;5009140;28;20083;-70
2023/09/27 11:18:12;;;;;;;16.10;10.05;;;;;;;;;;5007059;28;20026;-69
2023/09/27 11:20:41;;;;;;;16.20;10.07;;;;;;;;;;5008810;28;20189;-69
2023/09/27 11:23:08;;;;;;;14.93;9.25;;;;;;;;;;5009500;28;20030;-69
2023/09/27 11:25:35;;;;;;;15.75;10.10;;;;;;;;;;5009546;28;20026;-70
2023/09/27 11:28:02;;;;;;;21.13;9.35;;;;;;;;;;5006886;28;20033;-69
2023/09/27 11:30:33;;;;;;;14.88;9.27;;;;;;;;;;5008002;28;20104;-70
2023/09/27 11:33:01;;;;;;;16.80;9.23;;;;;;;;;;5009855;28;20030;-70
2023/09/27 11:35:27;;;;;;;13.27;8.60;;;;;;;;;;5009515;28;20046;-69
2023/09/27 11:38:07;;;;;;;12.93;8.23;;;;;;;;;;4990990;28;20070;-70
2023/09/27 11:40:34;;;;;;;10.73;7.83;;;;;;;;;;5000187;28;20049;-70
2023/09/27 11:43:04;;;;;;;14.73;8.15;;;;;;;;;;5008634;28;20524;-70
2023/09/27 11:45:42;;;;;;;11.75;7.00;;;;;;;;;;5009925;28;20061;-70
2023/09/27 11:48:08;;;;;;;10.50;6.50;;;;;;;;;;5009115;28;20030;-70
2023/09/27 11:50:35;;;;;;;8.60;6.03;;;;;;;;;;5008639;28;20073;-69
2023/09/27 11:53:01;;;;;;;10.65;5.63;;;;;;;;;;5007223;28;20026;-70
2023/09/27 11:55:27;;;;;;;9.90;6.13;;;;;;;;;;5008231;28;20113;-69
2023/09/27 11:57:57;;;;;;;13.75;6.30;;;;;;;;;;5009382;28;20040;-70
2023/09/27 12:00:23;;;;;;;11.63;6.05;;;;;;;;;;5003300;28;20034;-70
2023/09/27 12:02:51;;;;;;;12.02;5.88;;;;;;;;;;4990985;28;20113;-70
2023/09/27 12:05:17;;;;;;;13.35;5.82;;;;;;;;;;5008213;28;20040;-70
2023/09/27 12:07:44;;;;;;;11.02;5.82;;;;;;;;;;5007169;28;20137;-69
2023/09/27 12:10:10;;;;;;;9.10;5.75;;;;;;;;;;5008379;28;20029;-68
2023/09/27 12:12:40;;;;;;;10.07;6.50;;;;;;;;;;5008080;28;20034;-68
2023/09/27 12:15:07;;;;;;;16.30;5.45;;;;;;;;;;5008652;28;20599;-70
2023/09/27 12:17:33;;;;;;;11.00;5.70;;;;;;;;;;5008465;28;20034;-70
2023/09/27 12:19:59;;;;;;;7.25;5.47;;;;;;;;;;5007434;28;20124;-69
2023/09/27 12:22:25;;;;;;;8.25;6.00;;;;;;;;;;5019064;28;20025;-70
2023/09/27 12:24:51;;;;;;;9.27;5.85;;;;;;;;;;5029119;28;20033;-70
2023/09/27 12:27:18;;;;;;;11.27;6.10;;;;;;;;;;5017591;28;20041;-69
2023/09/27 12:29:44;;;;;;;11.00;5.90;;;;;;;;;;5017256;28;20049;-69
2023/09/27 12:32:10;;;;;;;11.02;6.20;;;;;;;;;;5003359;28;20124;-70
2023/09/27 12:34:36;;;;;;;11.20;6.43;;;;;;;;;;5018872;28;20038;-70
2023/09/27 12:37:02;;;;;;;11.68;6.35;;;;;;;;;;4990540;28;20083;-69
2023/09/27 12:39:29;;;;;;;10.20;5.60;;;;;;;;;;5005464;28;20084;-68
2023/09/27 12:41:59;;;;;;;14.00;5.40;;;;;;;;;;4987028;28;20034;-69
2023/09/27 12:44:26;;;;;;;9.68;5.80;;;;;;;;;;4993116;28;20308;-69
2023/09/27 12:46:52;;;;;;;11.38;5.82;;;;;;;;;;4992889;28;20050;-69
2023/09/27 12:49:18;;;;;;;9.90;5.10;;;;;;;;;;5004789;28;20074;-69
2023/09/27 12:51:44;;;;;;;11.25;5.15;;;;;;;;;;5010076;28;20152;-70
2023/09/27 12:54:12;;;;;;;11.25;5.85;;;;;;;;;;5012644;28;20030;-69
2023/09/27 12:56:38;;;;;;;10.90;5.78;;;;;;;;;;5011739;28;20045;-69
2023/09/27 12:59:04;;;;;;;13.50;5.78;;;;;;;;;;5011178;28;20069;-69
2023/09/27 13:01:30;;;;;;;9.80;5.53;;;;;;;;;;5011792;28;20030;-69
2023/09/27 13:03:57;;;;;;;9.18;6.32;;;;;;;;;;5009743;28;20038;-70
2023/09/27 13:06:23;;;;;;;13.57;6.63;;;;;;;;;;5009445;28;20045;-69
2023/09/27 13:08:50;;;;;;;9.50;6.45;;;;;;;;;;5007638;28;20133;-70
2023/09/27 13:11:17;;;;;;;11.27;6.85;;;;;;;;;;5018430;28;20029;-70
2023/09/27 13:13:43;;;;;;;8.77;5.82;;;;;;;;;;5006561;28;20048;-70
2023/09/27 13:16:09;;;;;;;13.10;6.57;;;;;;;;;;5016788;28;20026;-69
2023/09/27 13:18:35;;;;;;;10.40;6.53;;;;;;;;;;5006777;28;20045;-70
2023/09/27 13:21:01;;;;;;;9.55;6.45;;;;;;;;;;5007397;28;20037;-69
2023/09/27 13:23:27;;;;;;;17.65;6.40;;;;;;;;;;5017012;28;20045;-70
2023/09/27 13:25:54;;;;;;;8.93;5.65;;;;;;;;;;5010209;28;20124;-70
2023/09/27 13:28:20;;;;;;;8.15;5.70;;;;;;;;;;5009742;28;20064;-70
2023/09/27 13:30:47;;;;;;;9.38;5.53;;;;;;;;;;5010859;28;20030;-68
2023/09/27 13:33:13;;;;;;;13.40;5.68;;;;;;;;;;5024181;28;20101;-68
2023/09/27 13:35:39;;;;;;;11.43;6.00;;;;;;;;;;5022529;28;20075;-71
2023/09/27 13:38:06;;;;;;;11.32;6.28;;;;;;;;;;5015523;28;20072;-68
2023/09/27 13:40:32;;;;;;;9.65;5.63;;;;;;;;;;5015350;28;20029;-70
2023/09/27 13:42:58;;;;;;;13.43;6.20;;;;;;;;;;5020621;28;20116;-70
2023/09/27 13:45:24;;;;;;;8.48;5.38;;;;;;;;;;5025480;28;20033;-70
2023/09/27 13:47:51;;;;;;;11.27;6.10;;;;;;;;;;5020725;28;20025;-70
2023/09/27 13:50:17;;;;;;;11.57;6.40;;;;;;;;;;5009928;28;20076;-70
2023/09/27 13:52:43;;;;;;;10.75;5.15;;;;;;;;;;5002465;28;20030;-67
2023/09/27 13:55:11;;;;;;;10.23;5.68;;;;;;;;;;4996659;28;20026;-70
2023/09/27 13:57:40;;;;;;;8.95;5.55;;;;;;;;;;5008785;28;20029;-69
2023/09/27 14:00:08;;;;;;;13.73;5.35;;;;;;;;;;5010964;28;20037;-70
2023/09/27 14:02:37;;;;;;;9.65;5.93;;;;;;;;;;5011463;28;20040;-70
2023/09/27 14:05:03;;;;;;;10.75;6.18;;;;;;;;;;5014679;28;20176;-70
2023/09/27 14:07:30;;;;;;;12.20;6.63;;;;;;;;;;5013267;28;20095;-70
2023/09/27 14:09:56;;;;;;;10.52;6.03;;;;;;;;;;5028295;28;20138;-70
2023/09/27 14:12:22;;;;;;;9.52;6.43;;;;;;;;;;5013740;28;20033;-68
2023/09/27 14:14:50;;;;;;;12.38;7.53;;;;;;;;;;5010037;28;20022;-70
2023/09/27 14:17:17;;;;;;;11.30;7.55;;;;;;;;;;5008632;28;20044;-69
2023/09/27 14:19:44;;;;;;;12.20;7.40;;;;;;;;;;5008286;28;20105;-69